Time;durP1;ratioP1;P1;durP2;ratioP2;P2;SDS_P1;SDS_P2;PMS_P1;PMS_P2;Temp;Humidity;BMP_temperature;BMP_pressure;BME280_temperature;BME280_humidity;BME280_pressure;Samples;Min_cycle;Max_cycle;Signal;HPM_P1;HPM_P2
2021/10/31 00:00:08;;;;;;;;;17.50;16.25;;;;;;;;5017674;28;45419;-69
2021/10/31 00:02:34;;;;;;;;;17.75;16.00;;;;;;;;5016577;28;45163;-69
2021/10/31 00:04:59;;;;;;;;;24.00;22.75;;;;;;;;5016268;28;46858;-69
2021/10/31 00:07:24;;;;;;;;;21.75;19.50;;;;;;;;5017544;28;45318;-69
2021/10/31 00:09:49;;;;;;;;;17.50;15.00;;;;;;;;5017541;28;45277;-68
2021/10/31 00:12:15;;;;;;;;;19.25;18.00;;;;;;;;5017744;28;45358;-68
2021/10/31 00:14:40;;;;;;;;;16.25;15.25;;;;;;;;5017160;28;46341;-68
2021/10/31 00:17:05;;;;;;;;;21.00;16.00;;;;;;;;5017617;28;45255;-68
2021/10/31 00:19:31;;;;;;;;;15.25;15.25;;;;;;;;5017805;28;45534;-68
2021/10/31 00:21:56;;;;;;;;;18.00;15.25;;;;;;;;5017830;28;45201;-68
2021/10/31 00:24:22;;;;;;;;;14.75;14.75;;;;;;;;5017306;28;45199;-68
2021/10/31 00:26:47;;;;;;;;;16.75;16.25;;;;;;;;5017591;28;45699;-68
2021/10/31 00:29:12;;;;;;;;;20.00;16.00;;;;;;;;5018139;28;45398;-68
2021/10/31 00:31:37;;;;;;;;;18.50;17.50;;;;;;;;5016563;28;45568;-69
2021/10/31 00:34:03;;;;;;;;;20.75;16.00;;;;;;;;5017658;28;46180;-69
2021/10/31 00:36:28;;;;;;;;;17.25;17.25;;;;;;;;5017238;28;45406;-69
2021/10/31 00:38:53;;;;;;;;;19.50;17.25;;;;;;;;5017142;28;45364;-68
2021/10/31 00:41:18;;;;;;;;;14.75;14.00;;;;;;;;5017594;28;45291;-70
2021/10/31 00:43:44;;;;;;;;;17.25;17.25;;;;;;;;5017167;28;46526;-69
2021/10/31 00:46:09;;;;;;;;;15.25;12.50;;;;;;;;5016815;28;45526;-68
2021/10/31 00:48:34;;;;;;;;;14.25;13.75;;;;;;;;5015879;28;45412;-68
2021/10/31 00:50:59;;;;;;;;;15.00;14.25;;;;;;;;5017081;28;45551;-68
2021/10/31 00:53:25;;;;;;;;;18.50;17.50;;;;;;;;5016707;28;46326;-68
2021/10/31 00:55:51;;;;;;;;;21.50;17.25;;;;;;;;5017025;28;45453;-68
2021/10/31 00:58:18;;;;;;;;;16.50;13.50;;;;;;;;5015447;28;45338;-67
2021/10/31 01:00:43;;;;;;;;;29.75;24.25;;;;;;;;5016875;28;45478;-68
2021/10/31 01:03:09;;;;;;;;;33.25;26.50;;;;;;;;5016616;28;46664;-68
2021/10/31 01:05:41;;;;;;;;;14.75;14.75;;;;;;;;5016905;28;45260;-68
2021/10/31 01:08:14;;;;;;;;;13.75;12.25;;;;;;;;5016604;28;45393;-69
2021/10/31 01:10:48;;;;;;;;;13.75;13.75;;;;;;;;5016837;28;45533;-68
2021/10/31 01:13:16;;;;;;;;;17.75;14.50;;;;;;;;5016203;28;46304;-68
2021/10/31 01:15:47;;;;;;;;;18.00;16.50;;;;;;;;5016396;28;45430;-69
2021/10/31 01:18:18;;;;;;;;;13.00;13.00;;;;;;;;5016599;28;45315;-68
2021/10/31 01:20:46;;;;;;;;;15.50;13.00;;;;;;;;5016779;28;45589;-69
2021/10/31 01:23:18;;;;;;;;;11.75;11.75;;;;;;;;5016289;28;46425;-68
2021/10/31 01:26:02;;;;;;;;;15.00;13.50;;;;;;;;5016442;28;45244;-68
2021/10/31 01:28:27;;;;;;;;;16.75;14.50;;;;;;;;5016460;28;45399;-68
2021/10/31 01:30:55;;;;;;;;;11.75;10.25;;;;;;;;5016697;28;45373;-69
2021/10/31 01:33:39;;;;;;;;;12.00;11.00;;;;;;;;5016278;28;45271;-69
2021/10/31 01:36:12;;;;;;;;;12.25;12.25;;;;;;;;5016346;28;45378;-68
2021/10/31 01:38:49;;;;;;;;;13.00;11.00;;;;;;;;5016640;28;45322;-69
2021/10/31 01:41:14;;;;;;;;;14.25;12.75;;;;;;;;5016418;28;45239;-68
2021/10/31 01:43:58;;;;;;;;;17.00;14.00;;;;;;;;5015976;28;46359;-68
2021/10/31 01:46:32;;;;;;;;;24.25;23.00;;;;;;;;5014410;28;45338;-69
2021/10/31 01:49:02;;;;;;;;;16.50;15.50;;;;;;;;5014714;28;45388;-69
2021/10/31 01:51:33;;;;;;;;;17.50;15.75;;;;;;;;5016376;28;45560;-68
2021/10/31 01:54:01;;;;;;;;;14.75;12.25;;;;;;;;5015802;28;45704;-68
2021/10/31 01:56:27;;;;;;;;;20.50;19.75;;;;;;;;5015718;28;45397;-69
2021/10/31 01:59:01;;;;;;;;;21.25;21.00;;;;;;;;5015879;28;45387;-68
2021/10/31 02:01:27;;;;;;;;;20.75;17.50;;;;;;;;5015908;28;45245;-68
2021/10/31 02:03:53;;;;;;;;;18.75;17.75;;;;;;;;5015377;28;47013;-69
2021/10/31 02:06:20;;;;;;;;;20.25;16.25;;;;;;;;5015314;28;45339;-69
2021/10/31 02:08:46;;;;;;;;;21.75;17.75;;;;;;;;5015863;28;45387;-68
2021/10/31 02:11:12;;;;;;;;;18.25;16.50;;;;;;;;5016250;28;45433;-68
2021/10/31 02:13:40;;;;;;;;;19.75;15.75;;;;;;;;5014939;28;47262;-69
2021/10/31 02:16:05;;;;;;;;;18.50;17.00;;;;;;;;5015768;28;45294;-68
2021/10/31 02:18:32;;;;;;;;;16.50;15.50;;;;;;;;5015666;28;45300;-68
2021/10/31 02:20:59;;;;;;;;;21.75;20.50;;;;;;;;5015987;28;45545;-70
2021/10/31 02:23:25;;;;;;;;;20.75;18.50;;;;;;;;5015305;28;45466;-69
2021/10/31 02:25:50;;;;;;;;;19.25;16.50;;;;;;;;5015369;28;46008;-68
2021/10/31 02:28:16;;;;;;;;;20.25;18.00;;;;;;;;5015676;28;45339;-68
2021/10/31 02:30:41;;;;;;;;;25.25;24.25;;;;;;;;5014369;28;45264;-68
2021/10/31 02:33:06;;;;;;;;;22.25;19.50;;;;;;;;5015517;28;46569;-67
2021/10/31 02:35:32;;;;;;;;;19.00;19.00;;;;;;;;5015294;28;45393;-68
2021/10/31 02:37:57;;;;;;;;;26.75;25.50;;;;;;;;5015397;28;45200;-67
2021/10/31 02:40:23;;;;;;;;;22.00;19.75;;;;;;;;5015514;28;45283;-68
2021/10/31 02:42:49;;;;;;;;;19.75;17.25;;;;;;;;5015268;28;45339;-67
2021/10/31 02:45:14;;;;;;;;;17.50;16.50;;;;;;;;5014986;28;45291;-68
2021/10/31 02:47:41;;;;;;;;;17.75;17.75;;;;;;;;5015594;28;45308;-68
2021/10/31 02:50:07;;;;;;;;;20.75;19.25;;;;;;;;5015331;28;45216;-68
2021/10/31 02:52:44;;;;;;;;;23.25;19.75;;;;;;;;5014901;28;46303;-68
2021/10/31 02:55:29;;;;;;;;;19.75;17.75;;;;;;;;5015147;28;45354;-69
2021/10/31 02:57:56;;;;;;;;;19.25;17.75;;;;;;;;5011064;28;45321;-68
2021/10/31 03:00:24;;;;;;;;;18.00;15.50;;;;;;;;5015139;28;45311;-68
2021/10/31 03:02:50;;;;;;;;;17.25;15.75;;;;;;;;5014973;28;45466;-67
2021/10/31 03:05:15;;;;;;;;;17.00;15.25;;;;;;;;5014667;28;45309;-68
2021/10/31 03:07:41;;;;;;;;;17.00;17.00;;;;;;;;5015356;28;45335;-68
2021/10/31 03:10:06;;;;;;;;;20.25;17.75;;;;;;;;5015248;28;45334;-69
2021/10/31 03:12:32;;;;;;;;;20.25;17.00;;;;;;;;5014938;28;46522;-69
2021/10/31 03:14:57;;;;;;;;;20.00;18.50;;;;;;;;5014780;28;45312;-67
2021/10/31 03:17:23;;;;;;;;;16.25;15.25;;;;;;;;5015158;28;45398;-69
2021/10/31 03:19:49;;;;;;;;;16.00;16.00;;;;;;;;5014946;28;45476;-68
2021/10/31 03:22:14;;;;;;;;;21.25;19.75;;;;;;;;5014549;28;45376;-68
2021/10/31 03:24:40;;;;;;;;;19.50;18.25;;;;;;;;5013583;28;45309;-69
2021/10/31 03:27:05;;;;;;;;;15.50;15.50;;;;;;;;5014990;28;45299;-69
2021/10/31 03:29:31;;;;;;;;;14.25;13.50;;;;;;;;5015292;28;45530;-68
2021/10/31 03:31:56;;;;;;;;;21.25;19.75;;;;;;;;5018258;28;45358;-68
2021/10/31 03:34:21;;;;;;;;;16.75;16.75;;;;;;;;5018040;28;45430;-68
2021/10/31 03:36:47;;;;;;;;;13.00;11.25;;;;;;;;5017919;28;45306;-69
2021/10/31 03:39:13;;;;;;;;;15.75;14.50;;;;;;;;5018264;28;45193;-69
2021/10/31 03:41:38;;;;;;;;;18.25;15.25;;;;;;;;5017582;28;45397;-68
2021/10/31 03:44:04;;;;;;;;;17.75;15.75;;;;;;;;5016469;28;45352;-68
2021/10/31 03:46:29;;;;;;;;;20.50;18.75;;;;;;;;5017861;28;45225;-69
2021/10/31 03:48:54;;;;;;;;;16.75;16.00;;;;;;;;5018369;28;45598;-68
2021/10/31 03:51:20;;;;;;;;;17.50;16.00;;;;;;;;5018031;28;46248;-69
2021/10/31 03:53:45;;;;;;;;;18.25;16.50;;;;;;;;5018704;28;45412;-68
2021/10/31 03:56:10;;;;;;;;;18.00;16.75;;;;;;;;5018431;28;45268;-69
2021/10/31 03:58:35;;;;;;;;;20.25;16.75;;;;;;;;5018027;28;45419;-69
2021/10/31 04:01:00;;;;;;;;;19.25;19.25;;;;;;;;5017554;28;45374;-68
2021/10/31 04:03:26;;;;;;;;;17.25;14.50;;;;;;;;5017615;28;45235;-68
2021/10/31 04:05:52;;;;;;;;;18.00;16.00;;;;;;;;5016350;28;45433;-68
2021/10/31 04:08:17;;;;;;;;;19.50;18.00;;;;;;;;5016366;28;45585;-69
2021/10/31 04:10:42;;;;;;;;;18.25;17.00;;;;;;;;5017894;28;46450;-68
2021/10/31 04:13:07;;;;;;;;;22.75;21.25;;;;;;;;5017635;28;45259;-68
2021/10/31 04:15:33;;;;;;;;;20.25;17.25;;;;;;;;5017556;28;45466;-69
2021/10/31 04:17:58;;;;;;;;;20.50;20.50;;;;;;;;5017579;28;45462;-68
2021/10/31 04:20:23;;;;;;;;;13.50;12.50;;;;;;;;5017036;28;46444;-69
2021/10/31 04:22:48;;;;;;;;;20.00;17.25;;;;;;;;5017364;28;45390;-68
2021/10/31 04:25:14;;;;;;;;;16.25;15.50;;;;;;;;5017720;28;45414;-68
2021/10/31 04:27:39;;;;;;;;;18.00;16.00;;;;;;;;5017492;28;45289;-68
2021/10/31 04:30:05;;;;;;;;;15.00;14.00;;;;;;;;5017120;28;46523;-67
2021/10/31 04:32:30;;;;;;;;;14.50;14.50;;;;;;;;5015774;28;45486;-68
2021/10/31 04:34:56;;;;;;;;;23.00;18.50;;;;;;;;5017261;28;45927;-68
2021/10/31 04:37:21;;;;;;;;;22.75;19.50;;;;;;;;5017239;28;45474;-68
2021/10/31 04:39:48;;;;;;;;;17.50;13.00;;;;;;;;5017351;28;45530;-68
2021/10/31 04:42:13;;;;;;;;;15.75;15.00;;;;;;;;5016132;28;45278;-68
2021/10/31 04:44:39;;;;;;;;;15.00;15.00;;;;;;;;5016766;28;45268;-69
2021/10/31 04:47:04;;;;;;;;;15.75;14.00;;;;;;;;5017322;28;45599;-68
2021/10/31 04:49:30;;;;;;;;;16.75;14.75;;;;;;;;5015598;28;45779;-68
2021/10/31 04:51:56;;;;;;;;;19.50;17.00;;;;;;;;5016888;28;45254;-68
2021/10/31 04:54:21;;;;;;;;;15.75;14.25;;;;;;;;5016686;28;45312;-67
2021/10/31 04:56:47;;;;;;;;;17.25;12.25;;;;;;;;5017466;28;45366;-68
2021/10/31 04:59:12;;;;;;;;;12.25;11.50;;;;;;;;5016713;28;46515;-68
2021/10/31 05:01:37;;;;;;;;;14.25;13.75;;;;;;;;5016715;28;45439;-68
2021/10/31 05:04:03;;;;;;;;;12.00;12.00;;;;;;;;5015347;28;45382;-68
2021/10/31 05:06:28;;;;;;;;;12.00;12.00;;;;;;;;5015491;28;45487;-68
2021/10/31 05:08:53;;;;;;;;;15.00;13.25;;;;;;;;5016616;28;46361;-67
2021/10/31 05:11:19;;;;;;;;;12.25;10.75;;;;;;;;5016631;28;45394;-68
2021/10/31 05:13:44;;;;;;;;;15.75;14.50;;;;;;;;5017005;28;45296;-68
2021/10/31 05:16:10;;;;;;;;;13.75;13.00;;;;;;;;5015333;28;45394;-69
2021/10/31 05:18:35;;;;;;;;;13.00;12.50;;;;;;;;5015017;28;48025;-67
2021/10/31 05:21:00;;;;;;;;;16.50;13.00;;;;;;;;5016279;28;45309;-69
2021/10/31 05:23:26;;;;;;;;;12.00;12.00;;;;;;;;5016367;28;45429;-69
2021/10/31 05:25:51;;;;;;;;;16.00;12.25;;;;;;;;5016290;28;45627;-69
2021/10/31 05:28:17;;;;;;;;;12.75;12.75;;;;;;;;5016349;28;46479;-69
2021/10/31 05:30:42;;;;;;;;;13.50;12.50;;;;;;;;5015009;28;45298;-67
2021/10/31 05:33:07;;;;;;;;;11.00;10.50;;;;;;;;5016299;28;45876;-69
2021/10/31 05:35:32;;;;;;;;;12.25;11.25;;;;;;;;5016526;28;45560;-69
2021/10/31 05:37:59;;;;;;;;;13.25;10.50;;;;;;;;5016071;28;46114;-67
2021/10/31 05:40:25;;;;;;;;;14.00;11.25;;;;;;;;5015891;28;45311;-67
2021/10/31 05:42:50;;;;;;;;;10.75;10.75;;;;;;;;5016361;28;45437;-68
2021/10/31 05:45:15;;;;;;;;;11.50;9.75;;;;;;;;5016005;28;45677;-67
2021/10/31 05:47:42;;;;;;;;;13.25;11.00;;;;;;;;5015918;28;45217;-68
2021/10/31 05:50:08;;;;;;;;;11.25;9.25;;;;;;;;5015872;28;45371;-69
2021/10/31 05:52:34;;;;;;;;;9.75;9.50;;;;;;;;5014242;28;45340;-68
2021/10/31 05:55:00;;;;;;;;;8.50;7.75;;;;;;;;5015982;28;45276;-69
2021/10/31 05:57:26;;;;;;;;;11.25;8.50;;;;;;;;5014400;28;47258;-68
2021/10/31 05:59:51;;;;;;;;;9.00;9.00;;;;;;;;5014763;28;45367;-68
2021/10/31 06:02:16;;;;;;;;;12.75;8.75;;;;;;;;5015945;28;45295;-68
2021/10/31 06:04:44;;;;;;;;;7.25;6.75;;;;;;;;5014525;28;46057;-68
2021/10/31 06:07:10;;;;;;;;;11.75;10.25;;;;;;;;5015491;28;45235;-68
2021/10/31 06:09:35;;;;;;;;;10.00;9.00;;;;;;;;5015590;28;45239;-69
2021/10/31 06:12:00;;;;;;;;;13.50;8.75;;;;;;;;5015674;28;45283;-69
2021/10/31 06:14:26;;;;;;;;;9.25;9.00;;;;;;;;5015979;28;45315;-69
2021/10/31 06:16:51;;;;;;;;;11.50;8.50;;;;;;;;5015737;28;45548;-68
2021/10/31 06:19:16;;;;;;;;;7.75;7.75;;;;;;;;5014366;28;45425;-67
2021/10/31 06:21:41;;;;;;;;;7.25;6.50;;;;;;;;5014307;28;45384;-68
2021/10/31 06:24:07;;;;;;;;;9.00;6.75;;;;;;;;5015659;28;45553;-69
2021/10/31 06:26:32;;;;;;;;;5.50;5.50;;;;;;;;5014255;28;48003;-69
2021/10/31 06:28:57;;;;;;;;;10.75;9.00;;;;;;;;5015285;28;45369;-69
2021/10/31 06:31:22;;;;;;;;;11.00;8.75;;;;;;;;5015615;28;45358;-68
2021/10/31 06:33:47;;;;;;;;;7.25;6.50;;;;;;;;5015686;28;45434;-69
2021/10/31 06:36:13;;;;;;;;;14.00;9.75;;;;;;;;5014936;28;45401;-68
2021/10/31 06:38:38;;;;;;;;;13.00;8.25;;;;;;;;5015247;28;45353;-68
2021/10/31 06:41:07;;;;;;;;;7.00;6.50;;;;;;;;5015386;28;45434;-68
2021/10/31 06:43:33;;;;;;;;;9.00;8.00;;;;;;;;5015483;28;45520;-68
2021/10/31 06:45:58;;;;;;;;;9.50;7.25;;;;;;;;5015039;28;46347;-68
2021/10/31 06:48:23;;;;;;;;;10.00;8.50;;;;;;;;5015671;28;45493;-69
2021/10/31 06:50:50;;;;;;;;;8.00;7.50;;;;;;;;5015371;28;45337;-68
2021/10/31 06:53:16;;;;;;;;;11.50;9.75;;;;;;;;5015591;28;45241;-69
2021/10/31 06:55:41;;;;;;;;;13.00;8.00;;;;;;;;5014993;28;46347;-69
2021/10/31 06:58:06;;;;;;;;;9.75;9.00;;;;;;;;5015052;28;45260;-68
2021/10/31 07:00:32;;;;;;;;;10.00;7.00;;;;;;;;5015103;28;45279;-69
2021/10/31 07:02:57;;;;;;;;;7.75;7.75;;;;;;;;5015092;28;45236;-68
2021/10/31 07:05:22;;;;;;;;;6.00;5.75;;;;;;;;5016631;28;45249;-68
2021/10/31 07:07:47;;;;;;;;;8.25;6.00;;;;;;;;5018385;28;45284;-68
2021/10/31 07:10:16;;;;;;;;;10.00;9.50;;;;;;;;5018636;28;45375;-68
2021/10/31 07:12:42;;;;;;;;;10.00;7.50;;;;;;;;5018647;28;45591;-69
2021/10/31 07:15:07;;;;;;;;;8.75;6.00;;;;;;;;5018440;28;46023;-69
2021/10/31 07:17:33;;;;;;;;;6.75;6.75;;;;;;;;5018431;28;45277;-68
2021/10/31 07:19:58;;;;;;;;;10.00;10.00;;;;;;;;5017269;28;45308;-69
2021/10/31 07:22:23;;;;;;;;;10.50;10.25;;;;;;;;5018930;28;45227;-68
2021/10/31 07:24:50;;;;;;;;;8.50;8.50;;;;;;;;5018228;28;46229;-69
2021/10/31 07:27:15;;;;;;;;;11.50;10.00;;;;;;;;5018196;28;45204;-69
2021/10/31 07:29:41;;;;;;;;;9.75;9.00;;;;;;;;5017995;28;45301;-68
2021/10/31 07:32:06;;;;;;;;;9.75;8.00;;;;;;;;5018650;28;45685;-69
2021/10/31 07:34:31;;;;;;;;;5.50;5.50;;;;;;;;5016844;28;47497;-68
2021/10/31 07:36:57;;;;;;;;;8.25;6.00;;;;;;;;5016738;28;46004;-69
2021/10/31 07:39:22;;;;;;;;;7.00;7.00;;;;;;;;5018463;28;45332;-69
2021/10/31 07:41:47;;;;;;;;;6.50;6.00;;;;;;;;5018537;28;45565;-69
2021/10/31 07:44:13;;;;;;;;;8.50;8.25;;;;;;;;5017921;28;46063;-69
2021/10/31 07:46:38;;;;;;;;;8.00;6.00;;;;;;;;5016305;28;45623;-68
2021/10/31 07:49:04;;;;;;;;;6.75;6.75;;;;;;;;5017867;28;45318;-69
2021/10/31 07:51:29;;;;;;;;;10.25;10.25;;;;;;;;5018080;28;45411;-69
2021/10/31 07:53:55;;;;;;;;;6.25;6.25;;;;;;;;5017961;28;45436;-69
2021/10/31 07:56:23;;;;;;;;;7.50;7.00;;;;;;;;5017640;28;45417;-68
2021/10/31 07:58:54;;;;;;;;;6.50;6.50;;;;;;;;5017608;28;45242;-68
2021/10/31 08:01:20;;;;;;;;;8.50;5.25;;;;;;;;5016163;28;45475;-69
2021/10/31 08:03:46;;;;;;;;;9.75;7.50;;;;;;;;5016973;28;45522;-68
2021/10/31 08:06:11;;;;;;;;;8.00;7.25;;;;;;;;5016918;28;45416;-69
2021/10/31 08:08:36;;;;;;;;;5.50;5.50;;;;;;;;5017714;28;45408;-68
2021/10/31 08:11:02;;;;;;;;;11.00;8.00;;;;;;;;5016076;28;45625;-69
2021/10/31 08:13:27;;;;;;;;;10.00;8.00;;;;;;;;5017504;28;46775;-68
2021/10/31 08:15:54;;;;;;;;;8.75;7.00;;;;;;;;5017272;28;45439;-68
2021/10/31 08:18:20;;;;;;;;;8.00;7.00;;;;;;;;5017556;28;45425;-68
2021/10/31 08:20:46;;;;;;;;;6.25;6.25;;;;;;;;5017387;28;45319;-69
2021/10/31 08:23:15;;;;;;;;;12.75;8.75;;;;;;;;5015660;28;48297;-67
2021/10/31 08:25:41;;;;;;;;;9.50;7.25;;;;;;;;5017186;28;45497;-68
2021/10/31 08:28:08;;;;;;;;;11.25;9.00;;;;;;;;5017443;28;45396;-69
2021/10/31 08:30:34;;;;;;;;;6.75;6.75;;;;;;;;5016183;28;45218;-69
2021/10/31 08:33:06;;;;;;;;;11.50;10.00;;;;;;;;5015936;28;48266;-68
2021/10/31 08:35:31;;;;;;;;;10.75;10.00;;;;;;;;5015949;28;46177;-68
2021/10/31 08:37:56;;;;;;;;;10.00;10.00;;;;;;;;5017450;28;45365;-69
2021/10/31 08:40:22;;;;;;;;;9.25;8.50;;;;;;;;5017309;28;45371;-69
2021/10/31 08:42:47;;;;;;;;;9.25;9.00;;;;;;;;5016618;28;45371;-69
2021/10/31 08:45:12;;;;;;;;;8.25;8.25;;;;;;;;5016430;28;45326;-69
2021/10/31 08:47:38;;;;;;;;;11.00;8.75;;;;;;;;5015392;28;45403;-69
2021/10/31 08:50:03;;;;;;;;;9.00;9.00;;;;;;;;5016842;28;45361;-69
2021/10/31 08:52:29;;;;;;;;;9.50;7.50;;;;;;;;5015697;28;48314;-68
2021/10/31 08:54:54;;;;;;;;;9.00;8.00;;;;;;;;5015896;28;45391;-68
2021/10/31 08:57:19;;;;;;;;;7.75;6.00;;;;;;;;5017452;28;45376;-70
2021/10/31 08:59:45;;;;;;;;;9.75;7.50;;;;;;;;5015664;28;45576;-69
2021/10/31 09:02:10;;;;;;;;;12.75;10.00;;;;;;;;5014792;28;47173;-69
2021/10/31 09:04:39;;;;;;;;;9.00;7.50;;;;;;;;5016442;28;45223;-69
2021/10/31 09:07:04;;;;;;;;;7.50;7.50;;;;;;;;5016019;28;45365;-69
2021/10/31 09:09:29;;;;;;;;;7.75;7.50;;;;;;;;5016403;28;45379;-69
2021/10/31 09:11:55;;;;;;;;;7.50;6.75;;;;;;;;5016316;28;46007;-69
2021/10/31 09:14:20;;;;;;;;;11.75;9.50;;;;;;;;5015017;28;45396;-68
2021/10/31 09:16:45;;;;;;;;;7.50;6.25;;;;;;;;5016584;28;45419;-69
2021/10/31 09:19:11;;;;;;;;;8.25;8.25;;;;;;;;5015150;28;45535;-68
2021/10/31 09:21:36;;;;;;;;;9.50;8.00;;;;;;;;5015945;28;46272;-70
2021/10/31 09:24:02;;;;;;;;;6.00;5.50;;;;;;;;5015309;28;45277;-69
2021/10/31 09:26:27;;;;;;;;;7.00;7.00;;;;;;;;5016485;28;45478;-69
2021/10/31 09:28:52;;;;;;;;;5.75;5.00;;;;;;;;5015661;28;45729;-69
2021/10/31 09:31:18;;;;;;;;;8.00;7.00;;;;;;;;5016238;28;46409;-69
2021/10/31 09:33:43;;;;;;;;;6.00;5.00;;;;;;;;5015920;28;45230;-68
2021/10/31 09:36:08;;;;;;;;;12.50;10.00;;;;;;;;5016210;28;45370;-69
2021/10/31 09:38:35;;;;;;;;;6.00;6.00;;;;;;;;5016055;28;45268;-70
2021/10/31 09:41:01;;;;;;;;;7.00;6.25;;;;;;;;5016238;28;46249;-69
2021/10/31 09:43:29;;;;;;;;;8.75;6.25;;;;;;;;5015691;28;45346;-69
2021/10/31 09:45:56;;;;;;;;;6.25;5.00;;;;;;;;5015531;28;45440;-69
2021/10/31 09:48:21;;;;;;;;;7.25;6.00;;;;;;;;5014943;28;45455;-69
2021/10/31 09:50:48;;;;;;;;;8.25;5.00;;;;;;;;5015652;28;45508;-68
2021/10/31 09:53:17;;;;;;;;;5.50;5.00;;;;;;;;5015567;28;45247;-68
2021/10/31 09:55:43;;;;;;;;;9.00;6.00;;;;;;;;5015611;28;45251;-69
2021/10/31 09:58:17;;;;;;;;;4.00;4.00;;;;;;;;5016104;28;45405;-69
2021/10/31 10:00:48;;;;;;;;;4.50;4.50;;;;;;;;5014324;28;46173;-68
2021/10/31 10:06:08;;;;;;;;;3.50;3.50;;;;;;;;5015474;28;45329;-69
2021/10/31 10:08:34;;;;;;;;;4.75;4.00;;;;;;;;5015995;28;45288;-68
2021/10/31 10:10:59;;;;;;;;;8.25;7.00;;;;;;;;5015540;28;46058;-69
2021/10/31 10:13:31;;;;;;;;;11.00;11.00;;;;;;;;5013898;28;45844;-68
2021/10/31 10:16:15;;;;;;;;;7.00;5.00;;;;;;;;5015799;28;45317;-68
2021/10/31 10:18:40;;;;;;;;;4.50;4.50;;;;;;;;5015683;28;45643;-68
2021/10/31 10:21:15;;;;;;;;;7.75;3.75;;;;;;;;5013807;28;47834;-68
2021/10/31 10:24:01;;;;;;;;;6.00;4.25;;;;;;;;5015340;28;45433;-69
2021/10/31 10:26:31;;;;;;;;;2.75;2.75;;;;;;;;5013849;28;45563;-68
2021/10/31 10:29:01;;;;;;;;;4.00;4.00;;;;;;;;5015522;28;45597;-68
2021/10/31 10:31:27;;;;;;;;;7.50;6.25;;;;;;;;5015254;28;46159;-69
2021/10/31 10:33:53;;;;;;;;;6.50;5.00;;;;;;;;5015298;28;45442;-67
2021/10/31 10:36:19;;;;;;;;;4.00;4.00;;;;;;;;5015697;28;45310;-68
2021/10/31 10:38:57;;;;;;;;;6.00;5.00;;;;;;;;5013690;28;45345;-69
2021/10/31 10:41:41;;;;;;;;;4.00;4.00;;;;;;;;5014832;28;46039;-68
2021/10/31 10:44:27;;;;;;;;;4.00;4.00;;;;;;;;5014917;28;45383;-68
2021/10/31 10:46:55;;;;;;;;;3.75;3.75;;;;;;;;5014828;28;45338;-68
2021/10/31 10:49:21;;;;;;;;;6.25;4.25;;;;;;;;5014897;28;45268;-68
2021/10/31 10:52:05;;;;;;;;;3.25;3.00;;;;;;;;5014265;28;45378;-68
2021/10/31 10:54:30;;;;;;;;;4.25;3.00;;;;;;;;5013106;28;45944;-69
2021/10/31 10:57:01;;;;;;;;;4.00;4.00;;;;;;;;5014969;28;45428;-68
2021/10/31 10:59:28;;;;;;;;;7.25;6.25;;;;;;;;5014684;28;45595;-68
2021/10/31 11:02:19;;;;;;;;;6.00;5.00;;;;;;;;5014449;28;46147;-69
2021/10/31 11:04:46;;;;;;;;;5.25;5.25;;;;;;;;5012921;28;45439;-68
2021/10/31 11:07:12;;;;;;;;;4.75;3.50;;;;;;;;5014619;28;45291;-69
2021/10/31 11:09:38;;;;;;;;;4.00;2.50;;;;;;;;5014674;28;45335;-69
2021/10/31 11:12:20;;;;;;;;;3.00;3.00;;;;;;;;5014911;28;45526;-68
2021/10/31 11:14:46;;;;;;;;;3.00;3.00;;;;;;;;5014406;28;45431;-70
2021/10/31 11:17:12;;;;;;;;;6.00;5.00;;;;;;;;5014213;28;45391;-69
2021/10/31 11:19:38;;;;;;;;;5.00;4.25;;;;;;;;5015568;28;45348;-68
2021/10/31 11:22:03;;;;;;;;;1.00;1.00;;;;;;;;5015004;28;46446;-69
2021/10/31 11:24:29;;;;;;;;;1.50;1.50;;;;;;;;5014445;28;45247;-67
2021/10/31 11:26:54;;;;;;;;;3.75;3.00;;;;;;;;5014738;28;45291;-68
2021/10/31 11:29:20;;;;;;;;;2.00;2.00;;;;;;;;5014892;28;45384;-69
2021/10/31 11:31:45;;;;;;;;;2.00;2.00;;;;;;;;5013199;28;48405;-68
2021/10/31 11:34:11;;;;;;;;;4.25;3.00;;;;;;;;5013271;28;45407;-69
2021/10/31 11:36:36;;;;;;;;;1.50;1.50;;;;;;;;5014725;28;45408;-69
2021/10/31 11:39:02;;;;;;;;;5.00;4.00;;;;;;;;5014582;28;45463;-68
2021/10/31 11:41:32;;;;;;;;;3.75;3.75;;;;;;;;5013884;28;46202;-68
2021/10/31 11:43:57;;;;;;;;;6.00;5.75;;;;;;;;5013678;28;45379;-69
2021/10/31 11:46:42;;;;;;;;;3.75;3.75;;;;;;;;5013279;28;45443;-68
2021/10/31 11:49:08;;;;;;;;;6.25;5.00;;;;;;;;5014284;28;45557;-68
2021/10/31 11:51:41;;;;;;;;;5.25;5.25;;;;;;;;5015490;28;45357;-68
2021/10/31 11:54:06;;;;;;;;;4.00;3.25;;;;;;;;5017844;28;45302;-68
2021/10/31 11:56:37;;;;;;;;;5.50;3.25;;;;;;;;5017498;28;45214;-69
2021/10/31 11:59:16;;;;;;;;;6.75;3.00;;;;;;;;5017791;28;45375;-69
2021/10/31 12:01:44;;;;;;;;;5.00;4.50;;;;;;;;5017182;28;45462;-70
2021/10/31 12:04:11;;;;;;;;;4.50;4.25;;;;;;;;5017746;28;45480;-69
2021/10/31 12:06:44;;;;;;;;;5.25;5.25;;;;;;;;5017683;28;45488;-69
2021/10/31 12:09:21;;;;;;;;;5.00;5.00;;;;;;;;5017464;28;45417;-69
2021/10/31 12:11:47;;;;;;;;;5.25;5.25;;;;;;;;5015564;28;46963;-69
2021/10/31 12:14:13;;;;;;;;;3.50;3.00;;;;;;;;5017192;28;45311;-70
2021/10/31 12:16:57;;;;;;;;;5.00;5.00;;;;;;;;5017359;28;45449;-69
2021/10/31 12:19:42;;;;;;;;;8.75;6.50;;;;;;;;5017595;28;45256;-69
2021/10/31 12:22:12;;;;;;;;;5.25;4.50;;;;;;;;5017642;28;45356;-69
2021/10/31 12:24:42;;;;;;;;;8.00;6.00;;;;;;;;5017837;28;45306;-69
2021/10/31 12:27:09;;;;;;;;;5.00;5.00;;;;;;;;5017751;28;45317;-69
2021/10/31 12:29:36;;;;;;;;;10.00;7.00;;;;;;;;5017419;28;45528;-69
2021/10/31 12:32:15;;;;;;;;;5.25;5.25;;;;;;;;5016687;28;45516;-69
2021/10/31 12:34:41;;;;;;;;;2.50;2.50;;;;;;;;5017030;28;45481;-68
2021/10/31 12:37:22;;;;;;;;;7.25;6.50;;;;;;;;5015589;28;45384;-69
2021/10/31 12:39:58;;;;;;;;;6.25;6.25;;;;;;;;5017162;28;45216;-68
2021/10/31 12:42:29;;;;;;;;;5.50;5.00;;;;;;;;5016796;28;46538;-68
2021/10/31 12:44:58;;;;;;;;;4.00;4.00;;;;;;;;5016554;28;45164;-70
2021/10/31 12:47:26;;;;;;;;;4.50;4.50;;;;;;;;5015253;28;45193;-69
2021/10/31 12:50:05;;;;;;;;;5.00;4.00;;;;;;;;5017019;28;45259;-69
2021/10/31 12:52:30;;;;;;;;;6.25;5.75;;;;;;;;5016626;28;45813;-69
2021/10/31 12:55:19;;;;;;;;;5.00;3.00;;;;;;;;5016273;28;45247;-69
2021/10/31 12:58:01;;;;;;;;;7.00;5.75;;;;;;;;5013401;28;45267;-69
2021/10/31 13:00:27;;;;;;;;;4.25;4.00;;;;;;;;5016458;28;45471;-69
2021/10/31 13:02:54;;;;;;;;;4.75;4.25;;;;;;;;5015025;28;45363;-69
2021/10/31 13:05:26;;;;;;;;;8.00;8.00;;;;;;;;5015800;28;45343;-68
2021/10/31 13:07:52;;;;;;;;;8.00;8.00;;;;;;;;5015015;28;45351;-71
2021/10/31 13:10:22;;;;;;;;;5.50;4.25;;;;;;;;5016949;28;45318;-69
2021/10/31 13:12:48;;;;;;;;;6.25;5.00;;;;;;;;5016487;28;46469;-69
2021/10/31 13:15:15;;;;;;;;;7.00;5.00;;;;;;;;5014836;28;45313;-69
2021/10/31 13:17:43;;;;;;;;;6.50;6.00;;;;;;;;5016285;28;45393;-70
2021/10/31 13:20:09;;;;;;;;;5.25;5.25;;;;;;;;5016725;28;45411;-69
2021/10/31 13:22:34;;;;;;;;;9.25;9.25;;;;;;;;5015946;28;46312;-70
2021/10/31 13:24:59;;;;;;;;;6.00;5.00;;;;;;;;5015852;28;45443;-70
2021/10/31 13:27:25;;;;;;;;;7.00;5.75;;;;;;;;5016029;28;45370;-69
2021/10/31 13:29:51;;;;;;;;;6.00;3.75;;;;;;;;5016060;28;45615;-68
2021/10/31 13:32:20;;;;;;;;;6.00;6.00;;;;;;;;5015671;28;45452;-69
2021/10/31 13:34:47;;;;;;;;;4.00;4.00;;;;;;;;5015723;28;45297;-69
2021/10/31 13:37:13;;;;;;;;;3.50;3.50;;;;;;;;5016326;28;45272;-69
2021/10/31 13:39:39;;;;;;;;;6.75;6.00;;;;;;;;5016141;28;45279;-70
2021/10/31 13:42:05;;;;;;;;;3.00;3.00;;;;;;;;5016009;28;45355;-70
2021/10/31 13:44:31;;;;;;;;;5.25;3.75;;;;;;;;5015691;28;45406;-70
2021/10/31 13:47:08;;;;;;;;;4.00;3.00;;;;;;;;5015881;28;45460;-70
2021/10/31 13:49:41;;;;;;;;;4.50;3.50;;;;;;;;5016121;28;45276;-69
2021/10/31 13:52:07;;;;;;;;;3.50;2.75;;;;;;;;5014300;28;46238;-67
2021/10/31 13:54:32;;;;;;;;;6.00;4.50;;;;;;;;5015938;28;45311;-69
2021/10/31 13:56:57;;;;;;;;;5.50;4.00;;;;;;;;5016106;28;45279;-70
2021/10/31 13:59:26;;;;;;;;;4.25;4.25;;;;;;;;5016344;28;45300;-68
2021/10/31 14:01:57;;;;;;;;;3.25;3.25;;;;;;;;5015948;28;46333;-68
2021/10/31 14:04:29;;;;;;;;;4.50;4.50;;;;;;;;4998237;28;45843;-70
2021/10/31 14:07:11;;;;;;;;;3.50;3.00;;;;;;;;5015681;28;45455;-69
2021/10/31 14:09:43;;;;;;;;;5.00;5.00;;;;;;;;5015755;28;45538;-68
2021/10/31 14:12:16;;;;;;;;;12.00;10.25;;;;;;;;5015301;28;46275;-69
2021/10/31 14:14:44;;;;;;;;;5.00;3.00;;;;;;;;5015501;28;45405;-70
2021/10/31 14:17:17;;;;;;;;;2.75;2.75;;;;;;;;5015689;28;45292;-70
2021/10/31 14:19:43;;;;;;;;;3.00;3.00;;;;;;;;5016144;28;45664;-69
2021/10/31 14:22:09;;;;;;;;;3.00;3.00;;;;;;;;5015507;28;45707;-70
2021/10/31 14:24:35;;;;;;;;;4.75;4.00;;;;;;;;5015196;28;45257;-70
2021/10/31 14:27:14;;;;;;;;;4.00;4.00;;;;;;;;5015326;28;45257;-69
2021/10/31 14:29:40;;;;;;;;;2.25;2.25;;;;;;;;5014179;28;45468;-69
2021/10/31 14:32:05;;;;;;;;;5.75;5.75;;;;;;;;5015111;28;45417;-70
2021/10/31 14:34:50;;;;;;;;;5.00;4.25;;;;;;;;5015478;28;45341;-69